sensor_id;sensor_type;location;lat;lon;timestamp;P1;durP1;ratioP1;P2;durP2;ratioP2
30068;SDS011;16894;49.456;10.644;2023-07-13T00:01:27;1060.88;;;965.17;;
30068;SDS011;16894;49.456;10.644;2023-07-13T00:03:54;1074.57;;;975.13;;
30068;SDS011;16894;49.456;10.644;2023-07-13T00:06:21;1051.05;;;956.67;;
30068;SDS011;16894;49.456;10.644;2023-07-13T00:08:47;1119.93;;;999.90;;
30068;SDS011;16894;49.456;10.644;2023-07-13T00:11:14;1091.30;;;989.08;;
30068;SDS011;16894;49.456;10.644;2023-07-13T00:13:40;1062.50;;;964.35;;
30068;SDS011;16894;49.456;10.644;2023-07-13T00:16:07;1159.38;;;999.90;;
30068;SDS011;16894;49.456;10.644;2023-07-13T00:18:34;1099.53;;;995.55;;
30068;SDS011;16894;49.456;10.644;2023-07-13T00:20:59;1085.10;;;981.63;;
30068;SDS011;16894;49.456;10.644;2023-07-13T00:23:30;1120.25;;;999.90;;
30068;SDS011;16894;49.456;10.644;2023-07-13T00:25:59;1106.25;;;998.83;;
30068;SDS011;16894;49.456;10.644;2023-07-13T00:28:25;1074.53;;;973.10;;
30068;SDS011;16894;49.456;10.644;2023-07-13T00:30:51;1072.93;;;971.33;;
30068;SDS011;16894;49.456;10.644;2023-07-13T00:33:17;1019.37;;;926.93;;
30068;SDS011;16894;49.456;10.644;2023-07-13T00:35:42;1048.47;;;952.73;;
30068;SDS011;16894;49.456;10.644;2023-07-13T00:38:09;1029.40;;;939.67;;
30068;SDS011;16894;49.456;10.644;2023-07-13T00:40:35;968.20;;;884.85;;
30068;SDS011;16894;49.456;10.644;2023-07-13T00:43:01;942.88;;;864.45;;
30068;SDS011;16894;49.456;10.644;2023-07-13T00:47:52;884.63;;;813.80;;
30068;SDS011;16894;49.456;10.644;2023-07-13T00:50:19;856.22;;;790.10;;
30068;SDS011;16894;49.456;10.644;2023-07-13T00:52:46;810.45;;;748.75;;
30068;SDS011;16894;49.456;10.644;2023-07-13T00:55:15;793.58;;;734.10;;
30068;SDS011;16894;49.456;10.644;2023-07-13T00:57:42;771.78;;;713.90;;
30068;SDS011;16894;49.456;10.644;2023-07-13T01:02:35;798.78;;;737.67;;
30068;SDS011;16894;49.456;10.644;2023-07-13T01:05:10;766.53;;;708.75;;
30068;SDS011;16894;49.456;10.644;2023-07-13T01:07:39;717.50;;;664.78;;
30068;SDS011;16894;49.456;10.644;2023-07-13T01:10:06;710.30;;;658.13;;
30068;SDS011;16894;49.456;10.644;2023-07-13T01:12:32;713.25;;;661.22;;
30068;SDS011;16894;49.456;10.644;2023-07-13T01:14:58;671.70;;;623.40;;
30068;SDS011;16894;49.456;10.644;2023-07-13T01:17:27;657.30;;;610.47;;
30068;SDS011;16894;49.456;10.644;2023-07-13T01:19:54;680.13;;;630.50;;
30068;SDS011;16894;49.456;10.644;2023-07-13T01:22:20;606.13;;;564.13;;
30068;SDS011;16894;49.456;10.644;2023-07-13T01:24:52;658.22;;;611.38;;
30068;SDS011;16894;49.456;10.644;2023-07-13T01:27:22;616.88;;;573.72;;
30068;SDS011;16894;49.456;10.644;2023-07-13T01:29:50;609.78;;;567.08;;
30068;SDS011;16894;49.456;10.644;2023-07-13T01:32:21;615.22;;;572.05;;
30068;SDS011;16894;49.456;10.644;2023-07-13T01:34:52;556.83;;;519.22;;
30068;SDS011;16894;49.456;10.644;2023-07-13T01:37:22;509.73;;;476.30;;
30068;SDS011;16894;49.456;10.644;2023-07-13T01:39:49;505.73;;;472.80;;
30068;SDS011;16894;49.456;10.644;2023-07-13T01:42:15;462.05;;;432.00;;
30068;SDS011;16894;49.456;10.644;2023-07-13T01:44:40;500.83;;;467.73;;
30068;SDS011;16894;49.456;10.644;2023-07-13T01:47:06;452.88;;;423.38;;
30068;SDS011;16894;49.456;10.644;2023-07-13T01:49:32;419.25;;;392.40;;
30068;SDS011;16894;49.456;10.644;2023-07-13T01:51:57;444.07;;;415.53;;
30068;SDS011;16894;49.456;10.644;2023-07-13T01:54:23;468.70;;;438.80;;
30068;SDS011;16894;49.456;10.644;2023-07-13T01:56:49;466.02;;;435.75;;
30068;SDS011;16894;49.456;10.644;2023-07-13T01:59:14;392.80;;;367.30;;
30068;SDS011;16894;49.456;10.644;2023-07-13T02:01:40;457.20;;;428.07;;
30068;SDS011;16894;49.456;10.644;2023-07-13T02:04:05;470.00;;;439.83;;
30068;SDS011;16894;49.456;10.644;2023-07-13T02:06:31;506.10;;;472.73;;
30068;SDS011;16894;49.456;10.644;2023-07-13T02:08:57;473.92;;;443.35;;
30068;SDS011;16894;49.456;10.644;2023-07-13T02:11:23;501.70;;;469.20;;
30068;SDS011;16894;49.456;10.644;2023-07-13T02:13:50;510.25;;;476.88;;
30068;SDS011;16894;49.456;10.644;2023-07-13T02:18:41;692.97;;;641.20;;
30068;SDS011;16894;49.456;10.644;2023-07-13T02:21:07;940.53;;;786.67;;
30068;SDS011;16894;49.456;10.644;2023-07-13T02:23:33;580.38;;;540.42;;
30068;SDS011;16894;49.456;10.644;2023-07-13T02:25:59;615.50;;;572.47;;
30068;SDS011;16894;49.456;10.644;2023-07-13T02:28:27;624.95;;;580.85;;
30068;SDS011;16894;49.456;10.644;2023-07-13T02:30:53;527.42;;;492.20;;
30068;SDS011;16894;49.456;10.644;2023-07-13T02:33:19;571.63;;;532.22;;
30068;SDS011;16894;49.456;10.644;2023-07-13T02:35:45;558.90;;;519.85;;
30068;SDS011;16894;49.456;10.644;2023-07-13T02:38:10;531.87;;;496.00;;
30068;SDS011;16894;49.456;10.644;2023-07-13T02:40:36;519.63;;;485.15;;
30068;SDS011;16894;49.456;10.644;2023-07-13T02:43:02;489.67;;;457.65;;
30068;SDS011;16894;49.456;10.644;2023-07-13T02:45:28;515.50;;;481.08;;
30068;SDS011;16894;49.456;10.644;2023-07-13T02:47:54;488.58;;;456.85;;
30068;SDS011;16894;49.456;10.644;2023-07-13T02:50:20;469.17;;;439.00;;
30068;SDS011;16894;49.456;10.644;2023-07-13T02:52:45;460.20;;;430.58;;
30068;SDS011;16894;49.456;10.644;2023-07-13T02:55:11;436.30;;;408.80;;
30068;SDS011;16894;49.456;10.644;2023-07-13T02:57:37;424.83;;;397.53;;
30068;SDS011;16894;49.456;10.644;2023-07-13T03:00:03;522.97;;;488.67;;
30068;SDS011;16894;49.456;10.644;2023-07-13T03:02:33;492.48;;;460.13;;
30068;SDS011;16894;49.456;10.644;2023-07-13T03:05:01;514.65;;;480.55;;
30068;SDS011;16894;49.456;10.644;2023-07-13T03:07:26;475.00;;;444.50;;
30068;SDS011;16894;49.456;10.644;2023-07-13T03:09:54;454.80;;;425.30;;
30068;SDS011;16894;49.456;10.644;2023-07-13T03:12:23;436.65;;;408.50;;
30068;SDS011;16894;49.456;10.644;2023-07-13T03:14:49;415.70;;;389.70;;
30068;SDS011;16894;49.456;10.644;2023-07-13T03:17:15;429.65;;;402.30;;
30068;SDS011;16894;49.456;10.644;2023-07-13T03:19:41;414.50;;;388.57;;
30068;SDS011;16894;49.456;10.644;2023-07-13T03:22:07;382.42;;;358.63;;
30068;SDS011;16894;49.456;10.644;2023-07-13T03:24:33;361.43;;;338.60;;
30068;SDS011;16894;49.456;10.644;2023-07-13T03:27:01;371.25;;;348.83;;
30068;SDS011;16894;49.456;10.644;2023-07-13T03:29:28;361.00;;;339.08;;
30068;SDS011;16894;49.456;10.644;2023-07-13T03:31:54;386.52;;;362.92;;
30068;SDS011;16894;49.456;10.644;2023-07-13T03:34:20;393.27;;;368.85;;
30068;SDS011;16894;49.456;10.644;2023-07-13T03:36:46;360.23;;;338.23;;
30068;SDS011;16894;49.456;10.644;2023-07-13T03:39:11;522.47;;;487.27;;
30068;SDS011;16894;49.456;10.644;2023-07-13T03:44:03;348.80;;;327.00;;
30068;SDS011;16894;49.456;10.644;2023-07-13T03:46:30;324.00;;;304.10;;
30068;SDS011;16894;49.456;10.644;2023-07-13T03:48:56;339.50;;;318.75;;
30068;SDS011;16894;49.456;10.644;2023-07-13T03:51:21;416.40;;;389.92;;
30068;SDS011;16894;49.456;10.644;2023-07-13T03:53:47;375.13;;;351.37;;
30068;SDS011;16894;49.456;10.644;2023-07-13T03:56:13;372.30;;;348.77;;
30068;SDS011;16894;49.456;10.644;2023-07-13T03:58:41;339.83;;;319.23;;
30068;SDS011;16894;49.456;10.644;2023-07-13T04:01:08;330.75;;;310.92;;
30068;SDS011;16894;49.456;10.644;2023-07-13T04:03:35;349.35;;;328.13;;
30068;SDS011;16894;49.456;10.644;2023-07-13T04:06:02;356.85;;;334.80;;
30068;SDS011;16894;49.456;10.644;2023-07-13T04:08:31;373.00;;;349.95;;
30068;SDS011;16894;49.456;10.644;2023-07-13T04:10:58;363.52;;;341.10;;
30068;SDS011;16894;49.456;10.644;2023-07-13T04:13:24;398.60;;;373.50;;
30068;SDS011;16894;49.456;10.644;2023-07-13T04:15:50;363.90;;;341.48;;
30068;SDS011;16894;49.456;10.644;2023-07-13T04:18:17;321.75;;;301.92;;
30068;SDS011;16894;49.456;10.644;2023-07-13T04:20:45;313.50;;;294.50;;
30068;SDS011;16894;49.456;10.644;2023-07-13T04:23:11;341.95;;;321.15;;
30068;SDS011;16894;49.456;10.644;2023-07-13T04:25:36;366.50;;;343.87;;
30068;SDS011;16894;49.456;10.644;2023-07-13T04:28:03;383.05;;;359.70;;
30068;SDS011;16894;49.456;10.644;2023-07-13T04:30:29;336.25;;;315.35;;
30068;SDS011;16894;49.456;10.644;2023-07-13T04:32:55;360.08;;;338.27;;
30068;SDS011;16894;49.456;10.644;2023-07-13T04:35:20;434.33;;;406.07;;
30068;SDS011;16894;49.456;10.644;2023-07-13T04:37:47;555.33;;;514.88;;
30068;SDS011;16894;49.456;10.644;2023-07-13T04:40:15;450.15;;;420.23;;
30068;SDS011;16894;49.456;10.644;2023-07-13T04:42:43;668.72;;;619.30;;
30068;SDS011;16894;49.456;10.644;2023-07-13T04:45:09;871.60;;;803.05;;
30068;SDS011;16894;49.456;10.644;2023-07-13T04:47:35;919.80;;;843.35;;
30068;SDS011;16894;49.456;10.644;2023-07-13T04:50:01;960.97;;;877.58;;
30068;SDS011;16894;49.456;10.644;2023-07-13T04:52:27;966.08;;;886.15;;
30068;SDS011;16894;49.456;10.644;2023-07-13T04:54:52;967.33;;;885.35;;
30068;SDS011;16894;49.456;10.644;2023-07-13T04:57:18;1003.63;;;913.70;;
30068;SDS011;16894;49.456;10.644;2023-07-13T04:59:44;967.45;;;884.42;;
30068;SDS011;16894;49.456;10.644;2023-07-13T05:02:09;957.38;;;878.60;;
30068;SDS011;16894;49.456;10.644;2023-07-13T05:04:35;999.70;;;914.33;;
30068;SDS011;16894;49.456;10.644;2023-07-13T05:07:01;962.17;;;881.57;;
30068;SDS011;16894;49.456;10.644;2023-07-13T05:09:26;1023.75;;;930.65;;
30068;SDS011;16894;49.456;10.644;2023-07-13T05:11:52;1044.73;;;949.93;;
30068;SDS011;16894;49.456;10.644;2023-07-13T05:14:18;1000.70;;;914.00;;
30068;SDS011;16894;49.456;10.644;2023-07-13T05:16:43;1108.93;;;995.78;;
30068;SDS011;16894;49.456;10.644;2023-07-13T05:19:09;1007.25;;;918.90;;
30068;SDS011;16894;49.456;10.644;2023-07-13T05:21:35;1034.30;;;941.60;;
30068;SDS011;16894;49.456;10.644;2023-07-13T05:24:01;1077.20;;;975.72;;
30068;SDS011;16894;49.456;10.644;2023-07-13T05:26:26;1094.97;;;987.57;;
30068;SDS011;16894;49.456;10.644;2023-07-13T05:28:53;1076.07;;;975.38;;
30068;SDS011;16894;49.456;10.644;2023-07-13T05:31:18;1186.27;;;999.90;;
30068;SDS011;16894;49.456;10.644;2023-07-13T05:33:44;1257.87;;;999.90;;
30068;SDS011;16894;49.456;10.644;2023-07-13T05:36:10;1160.03;;;999.90;;
30068;SDS011;16894;49.456;10.644;2023-07-13T05:38:36;1140.85;;;999.90;;
30068;SDS011;16894;49.456;10.644;2023-07-13T05:41:01;1307.07;;;999.90;;
30068;SDS011;16894;49.456;10.644;2023-07-13T05:43:27;1150.30;;;999.90;;
30068;SDS011;16894;49.456;10.644;2023-07-13T05:45:53;1119.57;;;999.90;;
30068;SDS011;16894;49.456;10.644;2023-07-13T05:48:20;1118.47;;;999.90;;
30068;SDS011;16894;49.456;10.644;2023-07-13T05:50:46;1109.55;;;999.42;;
30068;SDS011;16894;49.456;10.644;2023-07-13T05:53:12;1156.32;;;999.90;;
30068;SDS011;16894;49.456;10.644;2023-07-13T05:55:41;1090.07;;;985.03;;
30068;SDS011;16894;49.456;10.644;2023-07-13T05:58:08;1074.60;;;972.15;;
30068;SDS011;16894;49.456;10.644;2023-07-13T06:00:35;1096.47;;;992.42;;
30068;SDS011;16894;49.456;10.644;2023-07-13T06:03:01;1117.97;;;999.63;;
30068;SDS011;16894;49.456;10.644;2023-07-13T06:05:26;1209.25;;;999.90;;
30068;SDS011;16894;49.456;10.644;2023-07-13T06:07:54;1403.40;;;999.90;;
30068;SDS011;16894;49.456;10.644;2023-07-13T06:10:20;1671.88;;;999.90;;
30068;SDS011;16894;49.456;10.644;2023-07-13T06:12:45;1531.75;;;999.90;;
30068;SDS011;16894;49.456;10.644;2023-07-13T06:15:11;1473.57;;;999.90;;
30068;SDS011;16894;49.456;10.644;2023-07-13T06:17:37;1287.57;;;983.87;;
30068;SDS011;16894;49.456;10.644;2023-07-13T06:20:02;1402.07;;;999.90;;
30068;SDS011;16894;49.456;10.644;2023-07-13T06:22:28;1325.63;;;995.92;;
30068;SDS011;16894;49.456;10.644;2023-07-13T06:24:54;1304.47;;;968.35;;
30068;SDS011;16894;49.456;10.644;2023-07-13T06:27:20;1738.95;;;924.90;;
30068;SDS011;16894;49.456;10.644;2023-07-13T06:29:45;1402.05;;;790.58;;
30068;SDS011;16894;49.456;10.644;2023-07-13T06:32:11;1999.90;;;999.90;;
30068;SDS011;16894;49.456;10.644;2023-07-13T06:34:37;951.30;;;682.28;;
30068;SDS011;16894;49.456;10.644;2023-07-13T06:37:02;903.50;;;602.07;;
30068;SDS011;16894;49.456;10.644;2023-07-13T06:39:28;1999.90;;;999.90;;
30068;SDS011;16894;49.456;10.644;2023-07-13T06:41:54;1999.90;;;999.90;;
30068;SDS011;16894;49.456;10.644;2023-07-13T06:44:20;1999.90;;;999.90;;
30068;SDS011;16894;49.456;10.644;2023-07-13T06:46:45;1999.90;;;999.90;;
30068;SDS011;16894;49.456;10.644;2023-07-13T06:49:11;1999.90;;;999.90;;
30068;SDS011;16894;49.456;10.644;2023-07-13T06:51:36;1999.90;;;999.90;;
30068;SDS011;16894;49.456;10.644;2023-07-13T06:54:02;1999.90;;;999.90;;
30068;SDS011;16894;49.456;10.644;2023-07-13T06:56:28;1999.90;;;999.90;;
30068;SDS011;16894;49.456;10.644;2023-07-13T06:58:54;1999.90;;;999.90;;
30068;SDS011;16894;49.456;10.644;2023-07-13T07:01:20;1999.90;;;999.90;;
30068;SDS011;16894;49.456;10.644;2023-07-13T07:03:45;1999.90;;;999.90;;
30068;SDS011;16894;49.456;10.644;2023-07-13T07:08:42;1999.90;;;999.90;;
30068;SDS011;16894;49.456;10.644;2023-07-13T07:11:11;1999.90;;;999.90;;
30068;SDS011;16894;49.456;10.644;2023-07-13T07:13:38;1999.90;;;999.90;;
30068;SDS011;16894;49.456;10.644;2023-07-13T07:16:04;1999.90;;;999.90;;
30068;SDS011;16894;49.456;10.644;2023-07-13T07:18:29;1999.90;;;999.90;;
30068;SDS011;16894;49.456;10.644;2023-07-13T07:20:55;1999.90;;;999.90;;
30068;SDS011;16894;49.456;10.644;2023-07-13T07:23:21;1999.90;;;999.90;;
30068;SDS011;16894;49.456;10.644;2023-07-13T07:25:47;1999.90;;;999.90;;
30068;SDS011;16894;49.456;10.644;2023-07-13T07:28:14;1999.90;;;999.90;;
30068;SDS011;16894;49.456;10.644;2023-07-13T07:30:43;1999.90;;;999.90;;
30068;SDS011;16894;49.456;10.644;2023-07-13T07:33:09;1999.90;;;999.90;;
30068;SDS011;16894;49.456;10.644;2023-07-13T07:35:35;1999.90;;;999.90;;
30068;SDS011;16894;49.456;10.644;2023-07-13T07:38:00;1999.90;;;999.90;;
30068;SDS011;16894;49.456;10.644;2023-07-13T07:40:26;1999.90;;;999.90;;
30068;SDS011;16894;49.456;10.644;2023-07-13T07:42:52;1999.90;;;999.90;;
30068;SDS011;16894;49.456;10.644;2023-07-13T07:45:18;1999.90;;;999.90;;
30068;SDS011;16894;49.456;10.644;2023-07-13T07:47:46;1999.90;;;999.90;;
30068;SDS011;16894;49.456;10.644;2023-07-13T07:50:12;1999.90;;;999.90;;
30068;SDS011;16894;49.456;10.644;2023-07-13T07:52:38;1999.90;;;999.90;;
30068;SDS011;16894;49.456;10.644;2023-07-13T07:55:05;1999.90;;;999.90;;
30068;SDS011;16894;49.456;10.644;2023-07-13T07:57:32;1999.90;;;999.90;;
30068;SDS011;16894;49.456;10.644;2023-07-13T07:59:57;1999.90;;;999.90;;
30068;SDS011;16894;49.456;10.644;2023-07-13T08:02:24;1999.90;;;999.90;;
30068;SDS011;16894;49.456;10.644;2023-07-13T08:04:50;1999.90;;;999.90;;
30068;SDS011;16894;49.456;10.644;2023-07-13T08:07:16;1999.90;;;999.90;;
30068;SDS011;16894;49.456;10.644;2023-07-13T08:09:42;1999.90;;;999.90;;
30068;SDS011;16894;49.456;10.644;2023-07-13T08:12:08;1999.90;;;999.90;;
30068;SDS011;16894;49.456;10.644;2023-07-13T08:14:33;1999.90;;;999.90;;
30068;SDS011;16894;49.456;10.644;2023-07-13T08:16:59;1999.90;;;999.90;;
30068;SDS011;16894;49.456;10.644;2023-07-13T08:19:25;1999.90;;;999.90;;
30068;SDS011;16894;49.456;10.644;2023-07-13T08:21:50;1999.90;;;999.90;;
30068;SDS011;16894;49.456;10.644;2023-07-13T08:24:16;1999.90;;;999.90;;
30068;SDS011;16894;49.456;10.644;2023-07-13T08:26:44;1999.90;;;999.90;;
30068;SDS011;16894;49.456;10.644;2023-07-13T08:29:11;1999.90;;;999.90;;
30068;SDS011;16894;49.456;10.644;2023-07-13T08:31:37;1999.90;;;999.90;;
30068;SDS011;16894;49.456;10.644;2023-07-13T08:34:02;1999.90;;;999.90;;
30068;SDS011;16894;49.456;10.644;2023-07-13T08:36:28;1999.90;;;999.90;;
30068;SDS011;16894;49.456;10.644;2023-07-13T08:38:54;1999.90;;;999.90;;
30068;SDS011;16894;49.456;10.644;2023-07-13T08:41:20;1999.90;;;999.90;;
30068;SDS011;16894;49.456;10.644;2023-07-13T08:43:47;1999.90;;;999.90;;
30068;SDS011;16894;49.456;10.644;2023-07-13T08:46:20;1999.90;;;999.90;;
30068;SDS011;16894;49.456;10.644;2023-07-13T08:48:52;1999.90;;;999.90;;
30068;SDS011;16894;49.456;10.644;2023-07-13T08:51:34;1999.90;;;999.90;;
30068;SDS011;16894;49.456;10.644;2023-07-13T08:54:21;1999.90;;;999.90;;
30068;SDS011;16894;49.456;10.644;2023-07-13T08:56:51;1999.90;;;999.90;;
30068;SDS011;16894;49.456;10.644;2023-07-13T08:59:19;1999.90;;;999.90;;
30068;SDS011;16894;49.456;10.644;2023-07-13T09:04:37;1999.90;;;999.90;;
30068;SDS011;16894;49.456;10.644;2023-07-13T09:07:55;1999.90;;;999.90;;
30068;SDS011;16894;49.456;10.644;2023-07-13T09:10:23;1999.90;;;999.90;;
30068;SDS011;16894;49.456;10.644;2023-07-13T09:15:32;1999.90;;;999.90;;
30068;SDS011;16894;49.456;10.644;2023-07-13T09:18:44;1999.90;;;999.90;;
30068;SDS011;16894;49.456;10.644;2023-07-13T09:20:52;1999.90;;;999.90;;
30068;SDS011;16894;49.456;10.644;2023-07-13T09:23:30;1999.90;;;999.90;;
30068;SDS011;16894;49.456;10.644;2023-07-13T09:26:04;1999.90;;;999.90;;
30068;SDS011;16894;49.456;10.644;2023-07-13T09:28:40;1999.90;;;999.90;;
30068;SDS011;16894;49.456;10.644;2023-07-13T09:31:23;1999.90;;;999.90;;
30068;SDS011;16894;49.456;10.644;2023-07-13T09:33:50;1999.90;;;999.90;;
30068;SDS011;16894;49.456;10.644;2023-07-13T09:36:23;1999.90;;;999.90;;
30068;SDS011;16894;49.456;10.644;2023-07-13T09:38:59;1999.90;;;999.90;;
30068;SDS011;16894;49.456;10.644;2023-07-13T09:44:38;1999.90;;;999.90;;
30068;SDS011;16894;49.456;10.644;2023-07-13T09:47:16;1999.90;;;999.90;;
30068;SDS011;16894;49.456;10.644;2023-07-13T09:49:44;1999.90;;;999.90;;
30068;SDS011;16894;49.456;10.644;2023-07-13T09:52:11;1999.90;;;999.90;;
30068;SDS011;16894;49.456;10.644;2023-07-13T09:54:39;1999.90;;;999.90;;
30068;SDS011;16894;49.456;10.644;2023-07-13T09:57:13;1999.90;;;999.90;;
30068;SDS011;16894;49.456;10.644;2023-07-13T09:59:44;1999.90;;;999.90;;
30068;SDS011;16894;49.456;10.644;2023-07-13T10:04:59;1999.90;;;999.90;;
30068;SDS011;16894;49.456;10.644;2023-07-13T10:07:28;1999.90;;;999.90;;
30068;SDS011;16894;49.456;10.644;2023-07-13T10:09:59;1999.90;;;999.90;;
30068;SDS011;16894;49.456;10.644;2023-07-13T10:12:26;1999.90;;;999.90;;
30068;SDS011;16894;49.456;10.644;2023-07-13T10:14:55;1999.90;;;999.90;;
30068;SDS011;16894;49.456;10.644;2023-07-13T10:17:31;1999.90;;;999.90;;
30068;SDS011;16894;49.456;10.644;2023-07-13T10:20:00;1999.90;;;999.90;;
30068;SDS011;16894;49.456;10.644;2023-07-13T10:22:41;1999.90;;;999.90;;
30068;SDS011;16894;49.456;10.644;2023-07-13T10:25:34;1999.90;;;999.90;;
30068;SDS011;16894;49.456;10.644;2023-07-13T10:28:22;1999.90;;;999.90;;
30068;SDS011;16894;49.456;10.644;2023-07-13T10:30:53;1999.90;;;999.90;;
30068;SDS011;16894;49.456;10.644;2023-07-13T10:33:23;1999.90;;;999.90;;
30068;SDS011;16894;49.456;10.644;2023-07-13T10:35:49;1999.90;;;999.90;;
30068;SDS011;16894;49.456;10.644;2023-07-13T10:38:20;1999.90;;;999.90;;
30068;SDS011;16894;49.456;10.644;2023-07-13T10:41:00;1999.90;;;999.90;;
30068;SDS011;16894;49.456;10.644;2023-07-13T10:43:35;1999.90;;;999.90;;
30068;SDS011;16894;49.456;10.644;2023-07-13T10:46:07;1999.90;;;999.90;;
30068;SDS011;16894;49.456;10.644;2023-07-13T10:48:35;1999.90;;;999.90;;
30068;SDS011;16894;49.456;10.644;2023-07-13T10:51:02;1999.90;;;999.90;;
30068;SDS011;16894;49.456;10.644;2023-07-13T10:53:32;1999.90;;;999.90;;
30068;SDS011;16894;49.456;10.644;2023-07-13T11:01:40;1999.90;;;999.90;;
30068;SDS011;16894;49.456;10.644;2023-07-13T11:04:17;1999.90;;;999.90;;
30068;SDS011;16894;49.456;10.644;2023-07-13T11:06:46;1999.90;;;999.90;;
30068;SDS011;16894;49.456;10.644;2023-07-13T11:11:59;1999.90;;;999.90;;
30068;SDS011;16894;49.456;10.644;2023-07-13T11:23:19;1999.90;;;999.90;;
30068;SDS011;16894;49.456;10.644;2023-07-13T11:25:42;1999.90;;;999.90;;
30068;SDS011;16894;49.456;10.644;2023-07-13T11:30:59;1999.90;;;999.90;;
30068;SDS011;16894;49.456;10.644;2023-07-13T11:36:15;1999.90;;;999.90;;
30068;SDS011;16894;49.456;10.644;2023-07-13T11:41:45;1999.90;;;999.90;;
30068;SDS011;16894;49.456;10.644;2023-07-13T11:44:21;1999.90;;;999.90;;
30068;SDS011;16894;49.456;10.644;2023-07-13T11:46:52;1999.90;;;999.90;;
30068;SDS011;16894;49.456;10.644;2023-07-13T11:49:29;1999.90;;;999.90;;
30068;SDS011;16894;49.456;10.644;2023-07-13T11:51:57;1999.90;;;999.90;;
30068;SDS011;16894;49.456;10.644;2023-07-13T11:54:31;1999.90;;;999.90;;
30068;SDS011;16894;49.456;10.644;2023-07-13T11:57:03;1999.90;;;999.90;;
30068;SDS011;16894;49.456;10.644;2023-07-13T11:59:41;1999.90;;;999.90;;
30068;SDS011;16894;49.456;10.644;2023-07-13T12:02:15;1999.90;;;999.90;;
30068;SDS011;16894;49.456;10.644;2023-07-13T12:04:57;1999.90;;;999.90;;
30068;SDS011;16894;49.456;10.644;2023-07-13T12:07:24;1999.90;;;999.90;;
30068;SDS011;16894;49.456;10.644;2023-07-13T12:10:29;1999.90;;;999.90;;
30068;SDS011;16894;49.456;10.644;2023-07-13T12:12:51;1999.90;;;999.90;;
30068;SDS011;16894;49.456;10.644;2023-07-13T12:15:39;1999.90;;;999.90;;
30068;SDS011;16894;49.456;10.644;2023-07-13T12:18:13;1999.90;;;999.90;;
30068;SDS011;16894;49.456;10.644;2023-07-13T12:20:47;1999.90;;;999.90;;
30068;SDS011;16894;49.456;10.644;2023-07-13T12:23:25;1999.90;;;999.90;;
30068;SDS011;16894;49.456;10.644;2023-07-13T12:25:56;1999.90;;;999.90;;
30068;SDS011;16894;49.456;10.644;2023-07-13T12:28:31;1999.90;;;999.90;;
30068;SDS011;16894;49.456;10.644;2023-07-13T12:31:03;1999.90;;;999.90;;
30068;SDS011;16894;49.456;10.644;2023-07-13T12:33:47;1999.90;;;999.90;;
30068;SDS011;16894;49.456;10.644;2023-07-13T12:36:13;1999.90;;;999.90;;
30068;SDS011;16894;49.456;10.644;2023-07-13T12:38:39;1999.90;;;999.90;;
30068;SDS011;16894;49.456;10.644;2023-07-13T12:41:05;1999.90;;;999.90;;
30068;SDS011;16894;49.456;10.644;2023-07-13T12:43:35;1999.90;;;999.90;;
30068;SDS011;16894;49.456;10.644;2023-07-13T12:46:14;1999.90;;;999.90;;
30068;SDS011;16894;49.456;10.644;2023-07-13T12:48:50;1999.90;;;999.90;;
30068;SDS011;16894;49.456;10.644;2023-07-13T12:51:17;1999.90;;;999.90;;
30068;SDS011;16894;49.456;10.644;2023-07-13T12:53:48;1999.90;;;999.90;;
30068;SDS011;16894;49.456;10.644;2023-07-13T12:56:22;1999.90;;;999.90;;
30068;SDS011;16894;49.456;10.644;2023-07-13T12:58:51;1999.90;;;999.90;;
30068;SDS011;16894;49.456;10.644;2023-07-13T13:01:22;1999.90;;;999.90;;
30068;SDS011;16894;49.456;10.644;2023-07-13T13:03:54;1999.90;;;999.90;;
30068;SDS011;16894;49.456;10.644;2023-07-13T13:06:25;1999.90;;;999.90;;
30068;SDS011;16894;49.456;10.644;2023-07-13T13:08:54;1999.90;;;999.90;;
30068;SDS011;16894;49.456;10.644;2023-07-13T13:11:21;1999.90;;;999.90;;
30068;SDS011;16894;49.456;10.644;2023-07-13T13:13:48;1999.90;;;999.90;;
30068;SDS011;16894;49.456;10.644;2023-07-13T13:18:57;1999.90;;;999.90;;
30068;SDS011;16894;49.456;10.644;2023-07-13T13:21:27;1999.90;;;999.90;;
30068;SDS011;16894;49.456;10.644;2023-07-13T13:26:19;1999.90;;;999.90;;
30068;SDS011;16894;49.456;10.644;2023-07-13T13:28:46;1999.90;;;999.90;;
30068;SDS011;16894;49.456;10.644;2023-07-13T13:31:15;1999.90;;;999.90;;
30068;SDS011;16894;49.456;10.644;2023-07-13T13:36:21;1999.90;;;999.90;;
30068;SDS011;16894;49.456;10.644;2023-07-13T13:38:48;1999.90;;;999.90;;
30068;SDS011;16894;49.456;10.644;2023-07-13T13:41:15;1999.90;;;999.90;;
30068;SDS011;16894;49.456;10.644;2023-07-13T13:43:41;1999.90;;;999.90;;
30068;SDS011;16894;49.456;10.644;2023-07-13T13:46:23;1999.90;;;999.90;;
30068;SDS011;16894;49.456;10.644;2023-07-13T13:48:50;1999.90;;;999.90;;
30068;SDS011;16894;49.456;10.644;2023-07-13T13:51:21;1999.90;;;999.90;;
30068;SDS011;16894;49.456;10.644;2023-07-13T13:53:48;1999.90;;;999.90;;
30068;SDS011;16894;49.456;10.644;2023-07-13T13:56:15;1999.90;;;999.90;;
30068;SDS011;16894;49.456;10.644;2023-07-13T13:58:42;1999.90;;;999.90;;
30068;SDS011;16894;49.456;10.644;2023-07-13T14:01:26;1999.90;;;999.90;;
30068;SDS011;16894;49.456;10.644;2023-07-13T14:03:53;1999.90;;;999.90;;
30068;SDS011;16894;49.456;10.644;2023-07-13T14:08:44;1999.90;;;999.90;;
30068;SDS011;16894;49.456;10.644;2023-07-13T14:11:16;1999.90;;;999.90;;
30068;SDS011;16894;49.456;10.644;2023-07-13T14:13:54;1999.90;;;999.90;;
30068;SDS011;16894;49.456;10.644;2023-07-13T14:16:22;1999.90;;;999.90;;
30068;SDS011;16894;49.456;10.644;2023-07-13T14:18:54;1999.90;;;999.90;;
30068;SDS011;16894;49.456;10.644;2023-07-13T14:21:23;1999.90;;;999.90;;
30068;SDS011;16894;49.456;10.644;2023-07-13T14:23:49;1999.90;;;999.90;;
30068;SDS011;16894;49.456;10.644;2023-07-13T14:28:42;1999.90;;;999.90;;
30068;SDS011;16894;49.456;10.644;2023-07-13T14:31:10;1999.90;;;999.90;;
30068;SDS011;16894;49.456;10.644;2023-07-13T14:33:37;1999.90;;;999.90;;
30068;SDS011;16894;49.456;10.644;2023-07-13T14:36:03;1999.90;;;999.90;;
30068;SDS011;16894;49.456;10.644;2023-07-13T14:38:45;1999.90;;;999.90;;
30068;SDS011;16894;49.456;10.644;2023-07-13T14:41:11;1999.90;;;999.90;;
30068;SDS011;16894;49.456;10.644;2023-07-13T14:43:37;1999.90;;;999.90;;
30068;SDS011;16894;49.456;10.644;2023-07-13T14:46:02;1999.90;;;999.90;;